Westhampton Beach, New York
Current Conditions -  °F | °C
As of 4:53 AM on Monday 22 Dec 2014 (Local Time) from KFOK Reporting Station
Overcast Overcast  
Wind Chill: 32°   Ceiling: 1000
Heat Index: 37°   Visibility: 10mi
Dew Point: 35°   Wind: 6mph
Humidity: 93%   Direction: 20°NNE
Pressure: 30.32"   Gusts: NA
Location:  40.8°N, 72.61°W
Report Text: KFOK 220953Z AUTO 02005KT 10SM BKN010 OVC036 03/02 A3032 RMK AO2 RAE0858 SLP268 P0000 T00280017 TSNO
Loading
Personal Weather Stations






























Interactive Weather Map New forecast layout! Learn more

10-Day Weather Forecast

Advertisements
Track Severe Weather on mobile